createdAt,value
2023-03-22T00:03:08.402Z,99.9
2023-03-22T00:08:08.397Z,99.9
2023-03-22T00:13:08.404Z,99.9
2023-03-22T00:18:08.484Z,99.9
2023-03-22T00:23:08.481Z,99.9
2023-03-22T00:28:08.515Z,99.9
2023-03-22T00:33:08.632Z,99.9
2023-03-22T00:38:08.640Z,99.9
2023-03-22T00:43:08.792Z,99.9
2023-03-22T00:48:08.857Z,99.9
2023-03-22T00:53:08.742Z,99.9
2023-03-22T00:58:08.781Z,99.9
2023-03-22T01:03:08.891Z,99.9
2023-03-22T01:08:08.824Z,99.9
2023-03-22T01:13:08.840Z,99.9
2023-03-22T01:18:08.891Z,99.9
2023-03-22T01:23:08.778Z,99.9
2023-03-22T01:28:08.776Z,99.9
2023-03-22T01:33:08.810Z,99.9
2023-03-22T01:38:08.785Z,99.9
2023-03-22T01:43:08.764Z,99.9
2023-03-22T01:48:08.837Z,99.9
2023-03-22T01:53:09.121Z,99.9
2023-03-22T01:58:08.771Z,99.9
2023-03-22T02:03:08.797Z,99.9
2023-03-22T02:08:08.782Z,99.9
2023-03-22T02:13:08.792Z,99.9
2023-03-22T02:18:08.769Z,99.9
2023-03-22T02:23:08.777Z,99.9
2023-03-22T02:28:08.778Z,99.9
2023-03-22T02:33:08.866Z,99.9
2023-03-22T02:38:08.776Z,99.9
2023-03-22T02:43:08.765Z,99.9
2023-03-22T02:48:08.796Z,99.9
2023-03-22T02:53:08.779Z,99.9
2023-03-22T02:58:08.760Z,99.9
2023-03-22T03:03:08.756Z,99.9
2023-03-22T03:08:08.780Z,99.9
2023-03-22T03:13:08.841Z,99.9
2023-03-22T03:18:08.856Z,99.9
2023-03-22T03:23:08.867Z,99.9
2023-03-22T03:28:08.891Z,99.9
2023-03-22T03:33:09.001Z,99.9
2023-03-22T03:38:09.084Z,99.9
2023-03-22T03:43:08.957Z,99.9
2023-03-22T03:48:09.092Z,99.9
2023-03-22T03:53:08.990Z,99.9
2023-03-22T03:58:08.977Z,99.9
2023-03-22T04:03:09.012Z,99.9
2023-03-22T04:08:09.145Z,99.9
2023-03-22T04:13:09.133Z,99.9
2023-03-22T04:18:09.069Z,99.9
2023-03-22T04:23:09.072Z,99.9
2023-03-22T04:28:09.100Z,99.9
2023-03-22T04:33:09.161Z,99.9
2023-03-22T04:38:09.226Z,99.9
2023-03-22T04:43:09.203Z,99.9
2023-03-22T04:48:09.224Z,99.9
2023-03-22T04:53:09.281Z,99.9
2023-03-22T04:58:09.263Z,99.9
2023-03-22T05:03:09.339Z,99.9
2023-03-22T05:08:09.310Z,99.9
2023-03-22T05:13:09.342Z,99.9
2023-03-22T05:18:09.334Z,99.9
2023-03-22T05:23:09.346Z,99.9
2023-03-22T05:28:09.366Z,99.9
2023-03-22T05:33:09.416Z,99.9
2023-03-22T05:38:09.409Z,99.9
2023-03-22T05:43:09.401Z,99.9
2023-03-22T05:48:09.639Z,99.9
2023-03-22T05:53:09.510Z,99.9
2023-03-22T05:58:09.558Z,99.9
2023-03-22T06:03:09.549Z,99.9
2023-03-22T06:08:09.531Z,99.9
2023-03-22T06:13:09.673Z,99.9
2023-03-22T06:18:09.575Z,99.9
2023-03-22T06:23:09.577Z,99.9
2023-03-22T06:28:09.613Z,99.9
2023-03-22T06:33:09.634Z,99.9
2023-03-22T06:38:09.619Z,99.9
2023-03-22T06:43:09.634Z,99.9
2023-03-22T06:48:09.753Z,99.9
2023-03-22T06:53:09.754Z,99.9
2023-03-22T06:58:09.981Z,99.9
2023-03-22T07:03:09.789Z,99.9
2023-03-22T07:08:09.865Z,99.9
2023-03-22T07:13:09.866Z,99.9
2023-03-22T07:18:09.798Z,99.9
2023-03-22T07:23:09.785Z,99.9
2023-03-22T07:28:09.784Z,99.9
2023-03-22T07:33:09.825Z,99.9
2023-03-22T07:38:09.796Z,99.9
2023-03-22T07:43:09.803Z,99.9
2023-03-22T07:48:09.869Z,99.9
2023-03-22T07:53:09.814Z,99.9
2023-03-22T07:58:09.935Z,99.9
2023-03-22T08:03:09.849Z,99.9
2023-03-22T08:08:09.854Z,99.9
2023-03-22T08:13:09.808Z,99.9
2023-03-22T08:18:09.875Z,99.9
2023-03-22T08:23:09.789Z,99.9
2023-03-22T08:28:09.768Z,99.9
2023-03-22T08:33:09.932Z,99.9
2023-03-22T08:38:09.773Z,99.9
2023-03-22T08:43:09.758Z,99.9
2023-03-22T08:48:09.845Z,99.9
2023-03-22T08:53:09.813Z,99.9
2023-03-22T08:58:09.771Z,99.9
2023-03-22T09:03:09.771Z,99.9
2023-03-22T09:08:18.099Z,99.9
2023-03-22T09:13:09.800Z,99.9
2023-03-22T09:18:09.769Z,99.9
2023-03-22T09:23:09.775Z,99.9
2023-03-22T09:28:09.789Z,99.9
2023-03-22T09:33:09.909Z,99.9
2023-03-22T09:38:09.784Z,99.9
2023-03-22T09:43:09.759Z,99.9
2023-03-22T09:48:09.789Z,99.9
2023-03-22T09:53:09.930Z,99.9
2023-03-22T09:58:09.762Z,99.9
2023-03-22T10:03:09.766Z,99.9
2023-03-22T10:08:09.760Z,99.9
2023-03-22T10:13:09.781Z,99.9
2023-03-22T10:18:09.761Z,99.9
2023-03-22T10:23:09.746Z,99.4
2023-03-22T10:28:09.749Z,98.6
2023-03-22T10:33:09.777Z,98.5
2023-03-22T10:38:09.764Z,99.1
2023-03-22T10:43:09.752Z,99
2023-03-22T10:48:09.931Z,95.7
2023-03-22T10:53:09.783Z,95.6
2023-03-22T10:58:09.762Z,94.8
2023-03-22T11:03:09.852Z,93.9
2023-03-22T11:08:09.814Z,94
2023-03-22T11:13:09.793Z,93.9
2023-03-22T11:18:09.758Z,93.5
2023-03-22T11:23:09.770Z,92
2023-03-22T11:28:09.748Z,91
2023-03-22T11:33:09.848Z,90.8
2023-03-22T11:38:09.775Z,89.4
2023-03-22T11:43:09.744Z,88.6
2023-03-22T11:48:09.791Z,88.2
2023-03-22T11:53:09.773Z,87.3
2023-03-22T11:58:09.743Z,86.7
2023-03-22T12:03:09.881Z,82.1
2023-03-22T12:08:09.756Z,81.5
2023-03-22T12:13:09.773Z,79
2023-03-22T12:18:09.817Z,78.8
2023-03-22T12:23:09.751Z,79
2023-03-22T12:28:09.742Z,79.3
2023-03-22T12:33:09.869Z,77.3
2023-03-22T12:38:09.747Z,73.9
2023-03-22T12:43:09.741Z,73.3
2023-03-22T12:48:09.799Z,73.5
2023-03-22T12:53:09.783Z,74.4
2023-03-22T12:58:09.737Z,71.3
2023-03-22T13:03:10.645Z,71.2
2023-03-22T13:08:09.734Z,71
2023-03-22T13:13:09.855Z,69.3
2023-03-22T13:18:09.790Z,68.7
2023-03-22T13:23:09.749Z,68.2
2023-03-22T13:28:09.747Z,67.5
2023-03-22T13:33:09.871Z,64.9
2023-03-22T13:38:09.735Z,64.2
2023-03-22T13:43:09.801Z,63.7
2023-03-22T13:48:09.943Z,63.7
2023-03-22T13:53:09.801Z,63.4
2023-03-22T13:58:09.778Z,63.7
2023-03-22T14:03:09.891Z,62.2
2023-03-22T14:08:09.781Z,62.9
2023-03-22T14:13:09.808Z,61.5
2023-03-22T14:18:09.811Z,62.6
